createdAt,value
2019-04-16T00:00:53.215Z,9.23
2019-04-16T00:03:23.166Z,9.77
2019-04-16T00:06:11.146Z,10.00
2019-04-16T00:08:47.875Z,10.30
2019-04-16T00:11:21.583Z,9.30
2019-04-16T00:13:55.595Z,10.03
2019-04-16T00:16:24.966Z,10.60
2019-04-16T00:18:57.849Z,9.47
2019-04-16T00:21:27.031Z,10.13
2019-04-16T00:24:03.912Z,9.50
2019-04-16T00:26:33.571Z,10.07
2019-04-16T00:29:03.263Z,10.07
2019-04-16T00:31:34.393Z,9.73
2019-04-16T00:34:04.154Z,10.73
2019-04-16T00:36:33.531Z,9.73
2019-04-16T00:39:03.164Z,9.57
2019-04-16T00:41:32.534Z,9.23
2019-04-16T00:44:01.884Z,9.60
2019-04-16T00:46:31.243Z,9.20
2019-04-16T00:49:00.590Z,9.97
2019-04-16T00:51:29.973Z,9.50
2019-04-16T00:53:59.330Z,9.33
2019-04-16T00:56:28.764Z,9.77
2019-04-16T00:58:58.111Z,9.77
2019-04-16T01:01:27.484Z,9.53
2019-04-16T01:03:56.827Z,9.67
2019-04-16T01:06:26.201Z,9.30
2019-04-16T01:08:55.566Z,9.13
2019-04-16T01:11:24.927Z,9.67
2019-04-16T01:13:55.693Z,9.07
2019-04-16T01:16:25.347Z,10.53
2019-04-16T01:18:54.715Z,9.40
2019-04-16T01:21:24.066Z,9.70
2019-04-16T01:23:53.431Z,8.90
2019-04-16T01:26:24.275Z,9.77
2019-04-16T01:28:55.487Z,8.80
2019-04-16T01:31:32.323Z,9.47
2019-04-16T01:34:03.319Z,8.87
2019-04-16T01:36:43.546Z,9.80
2019-04-16T01:39:18.202Z,9.40
2019-04-16T01:41:50.351Z,9.77
2019-04-16T01:44:18.870Z,7.97
2019-04-16T01:46:48.243Z,8.90
2019-04-16T01:49:17.599Z,9.37
2019-04-16T01:51:47.433Z,8.93
2019-04-16T01:54:17.602Z,9.20
2019-04-16T01:56:46.971Z,9.40
2019-04-16T01:59:16.310Z,9.00
2019-04-16T02:01:45.691Z,9.13
2019-04-16T02:04:19.608Z,9.00
2019-04-16T02:06:46.096Z,9.17
2019-04-16T02:09:22.426Z,10.20
2019-04-16T02:11:46.498Z,9.23
2019-04-16T02:14:17.967Z,9.53
2019-04-16T02:16:46.989Z,8.37
2019-04-16T02:19:16.338Z,9.33
2019-04-16T02:21:45.702Z,9.00
2019-04-16T02:24:18.559Z,9.17
2019-04-16T02:26:46.397Z,8.60
2019-04-16T02:29:15.738Z,8.93
2019-04-16T02:31:47.995Z,8.97
2019-04-16T02:34:16.140Z,8.33
2019-04-16T02:36:45.486Z,8.33
2019-04-16T02:39:14.844Z,8.87
2019-04-16T02:41:44.187Z,9.03
2019-04-16T02:44:16.577Z,8.50
2019-04-16T02:46:44.666Z,9.27
2019-04-16T02:49:14.019Z,8.63
2019-04-16T02:51:47.905Z,9.33
2019-04-16T02:54:21.860Z,9.87
2019-04-16T02:56:53.108Z,9.10
2019-04-16T02:59:30.237Z,9.07
2019-04-16T03:02:01.436Z,9.03
2019-04-16T03:04:47.362Z,8.83
2019-04-16T03:07:16.803Z,9.80
2019-04-16T03:09:46.223Z,9.63
2019-04-16T03:12:17.627Z,8.70
2019-04-16T03:14:46.793Z,9.30
2019-04-16T03:17:20.762Z,8.03
2019-04-16T03:19:52.111Z,8.90
2019-04-16T03:22:21.682Z,8.30
2019-04-16T03:24:51.022Z,8.93
2019-04-16T03:27:22.212Z,9.33
2019-04-16T03:29:51.426Z,8.73
2019-04-16T03:32:20.853Z,8.07
2019-04-16T03:34:50.601Z,9.30
2019-04-16T03:37:21.344Z,8.63
2019-04-16T03:39:50.688Z,9.83
2019-04-16T03:42:20.054Z,8.13
2019-04-16T03:44:49.417Z,8.57
2019-04-16T03:47:19.928Z,9.10
2019-04-16T03:49:49.502Z,8.87
2019-04-16T03:52:18.863Z,8.57
2019-04-16T03:54:48.254Z,9.10
2019-04-16T03:57:17.671Z,9.00
2019-04-16T03:59:47.025Z,9.03
2019-04-16T04:02:21.979Z,8.20
2019-04-16T04:04:47.447Z,8.93
2019-04-16T04:07:16.826Z,8.70
2019-04-16T04:09:46.237Z,8.33
2019-04-16T04:12:15.598Z,8.80
2019-04-16T04:14:44.944Z,9.23
2019-04-16T04:17:14.375Z,8.03
2019-04-16T04:19:46.245Z,8.53
2019-04-16T04:22:14.781Z,9.03
2019-04-16T04:24:44.122Z,9.57
2019-04-16T04:27:18.261Z,7.93
2019-04-16T04:29:46.273Z,8.23
2019-04-16T04:32:15.598Z,9.10
2019-04-16T04:34:45.397Z,9.67
2019-04-16T04:37:16.011Z,9.63
2019-04-16T04:39:45.360Z,9.03
2019-04-16T04:42:14.705Z,8.93
2019-04-16T04:44:46.830Z,8.70
2019-04-16T04:47:18.442Z,8.83
2019-04-16T04:49:46.393Z,8.77
2019-04-16T04:52:15.726Z,9.13
2019-04-16T04:54:45.095Z,9.00
2019-04-16T04:57:14.442Z,8.47
2019-04-16T04:59:43.810Z,9.03
2019-04-16T05:02:14.663Z,9.00
2019-04-16T05:04:52.353Z,9.10
2019-04-16T05:07:22.645Z,8.40
2019-04-16T05:09:52.047Z,8.93
2019-04-16T05:12:22.274Z,8.63
2019-04-16T05:14:57.485Z,8.63
2019-04-16T05:17:25.708Z,8.33
2019-04-16T05:19:55.067Z,8.97
2019-04-16T05:22:24.437Z,8.67
2019-04-16T05:24:53.811Z,9.97
2019-04-16T05:27:23.146Z,8.97
2019-04-16T05:29:52.508Z,8.73
2019-04-16T05:32:25.679Z,9.17
2019-04-16T05:34:53.803Z,10.17
2019-04-16T05:37:23.242Z,10.53
2019-04-16T05:39:52.617Z,10.77
2019-04-16T05:42:22.447Z,9.57
2019-04-16T05:44:53.018Z,9.20
2019-04-16T05:47:22.381Z,9.73
2019-04-16T05:49:54.390Z,9.20
2019-04-16T05:52:23.065Z,9.30
2019-04-16T05:54:57.016Z,9.30
2019-04-16T05:57:28.048Z,9.00
2019-04-16T05:59:57.386Z,9.03
2019-04-16T06:02:31.403Z,9.60
2019-04-16T06:05:00.749Z,9.03
2019-04-16T06:07:30.196Z,9.57
2019-04-16T06:09:59.544Z,8.47
2019-04-16T06:12:32.541Z,10.13
2019-04-16T06:15:09.004Z,8.80
2019-04-16T06:17:40.013Z,10.20
2019-04-16T06:20:21.399Z,8.83
2019-04-16T06:22:52.803Z,9.27
2019-04-16T06:25:26.639Z,9.00
2019-04-16T06:28:09.526Z,8.47
2019-04-16T06:30:43.293Z,9.20
2019-04-16T06:33:14.286Z,9.00
2019-04-16T06:35:57.246Z,9.03
2019-04-16T06:38:28.493Z,8.33
2019-04-16T06:41:03.370Z,8.53
2019-04-16T06:43:41.392Z,8.40
2019-04-16T06:46:21.709Z,8.60
2019-04-16T06:48:52.721Z,9.73
2019-04-16T06:51:32.496Z,8.47
2019-04-16T06:54:15.807Z,8.80
2019-04-16T06:56:50.458Z,9.20
2019-04-16T06:59:21.762Z,8.17
2019-04-16T07:01:58.895Z,9.57
2019-04-16T07:04:32.724Z,8.77
2019-04-16T07:07:21.742Z,8.70
2019-04-16T07:09:56.650Z,9.00
2019-04-16T07:12:22.919Z,8.77
2019-04-16T07:14:52.322Z,9.53
2019-04-16T07:17:21.786Z,9.07
2019-04-16T07:19:51.935Z,9.47
2019-04-16T07:22:22.231Z,10.10
2019-04-16T07:24:53.585Z,8.97
2019-04-16T07:27:23.133Z,10.20
2019-04-16T07:29:54.208Z,9.10
2019-04-16T07:32:41.550Z,8.83
2019-04-16T07:35:29.085Z,9.50
2019-04-16T07:38:05.007Z,9.30
2019-04-16T07:40:41.823Z,10.43
2019-04-16T07:43:31.241Z,9.90
2019-04-16T07:46:07.659Z,10.17
2019-04-16T07:48:38.660Z,9.70
2019-04-16T07:51:24.942Z,9.67
2019-04-16T07:54:02.865Z,10.03
2019-04-16T07:56:33.002Z,10.10
2019-04-16T07:59:02.415Z,10.20
2019-04-16T08:01:31.842Z,9.53
2019-04-16T08:04:02.988Z,10.80
2019-04-16T08:06:32.287Z,10.30
2019-04-16T08:09:01.780Z,10.77
2019-04-16T08:11:31.197Z,10.33
2019-04-16T08:14:00.571Z,9.70
2019-04-16T08:16:29.940Z,10.67
2019-04-16T08:18:59.306Z,10.67
2019-04-16T08:21:28.657Z,10.23
2019-04-16T08:24:14.475Z,10.10
2019-04-16T08:26:45.053Z,9.73
2019-04-16T08:29:14.776Z,10.30
2019-04-16T08:31:45.770Z,10.40
2019-04-16T08:34:15.203Z,11.13
2019-04-16T08:36:44.562Z,9.90
2019-04-16T08:39:14.924Z,11.40
2019-04-16T08:41:44.331Z,10.93
2019-04-16T08:44:13.778Z,11.37
2019-04-16T08:46:43.126Z,12.33
2019-04-16T08:49:14.843Z,11.50
2019-04-16T08:51:43.699Z,11.23
2019-04-16T08:54:17.554Z,11.17
2019-04-16T08:56:44.226Z,11.73
2019-04-16T08:59:13.675Z,11.20
2019-04-16T09:01:43.199Z,11.27
2019-04-16T09:04:12.566Z,11.37
2019-04-16T09:06:42.699Z,11.77
2019-04-16T09:09:24.717Z,12.07
2019-04-16T09:11:56.143Z,11.67
2019-04-16T09:14:27.200Z,12.10
2019-04-16T09:17:16.172Z,12.23
2019-04-16T09:19:47.184Z,11.90
2019-04-16T09:22:17.135Z,10.70
2019-04-16T09:25:05.204Z,12.80
2019-04-16T09:27:36.307Z,11.97
2019-04-16T09:30:11.030Z,12.30
2019-04-16T09:32:41.543Z,11.67
2019-04-16T09:35:19.829Z,11.67
2019-04-16T09:37:51.215Z,13.78
2019-04-16T09:40:27.703Z,12.53
2019-04-16T09:42:57.621Z,11.93
2019-04-16T09:45:26.991Z,12.43
2019-04-16T09:47:56.338Z,13.37
2019-04-16T09:50:26.185Z,12.53
2019-04-16T09:52:56.421Z,13.20
2019-04-16T09:55:25.856Z,12.70
2019-04-16T09:57:55.238Z,13.83
2019-04-16T10:00:31.966Z,12.50
2019-04-16T10:03:21.395Z,12.93
2019-04-16T10:05:50.992Z,12.70
2019-04-16T10:08:20.354Z,12.53
2019-04-16T10:10:49.726Z,13.17
2019-04-16T10:13:30.039Z,11.80
2019-04-16T10:15:50.409Z,12.57
2019-04-16T10:18:19.832Z,12.77
2019-04-16T10:20:49.287Z,12.63
2019-04-16T10:23:26.115Z,13.67
2019-04-16T10:25:55.540Z,13.20
2019-04-16T10:28:29.200Z,12.80
2019-04-16T10:30:58.693Z,13.83
2019-04-16T10:33:28.100Z,13.83
2019-04-16T10:35:57.725Z,12.73
2019-04-16T10:38:37.801Z,13.53
2019-04-16T10:41:11.927Z,13.27
2019-04-16T10:43:48.890Z,14.07
2019-04-16T10:46:25.970Z,13.00
2019-04-16T10:48:56.979Z,13.23
2019-04-16T10:51:33.948Z,13.90
2019-04-16T10:54:23.080Z,12.90
2019-04-16T10:57:06.319Z,13.07
2019-04-16T10:59:40.653Z,13.60
2019-04-16T11:02:11.670Z,13.37
2019-04-16T11:04:43.303Z,14.43
2019-04-16T11:07:17.450Z,13.77
2019-04-16T11:09:46.874Z,13.67
2019-04-16T11:12:19.597Z,13.23
2019-04-16T11:14:47.286Z,13.73
2019-04-16T11:17:18.439Z,13.33
2019-04-16T11:19:52.551Z,13.73
2019-04-16T11:22:19.018Z,15.07
2019-04-16T11:24:48.465Z,14.83
2019-04-16T11:27:17.966Z,12.80
2019-04-16T11:29:47.327Z,13.80
2019-04-16T11:32:18.356Z,13.90
2019-04-16T11:34:47.801Z,14.10
2019-04-16T11:37:17.222Z,13.93
2019-04-16T11:39:46.665Z,14.07
2019-04-16T11:42:16.100Z,14.90
2019-04-16T11:44:45.481Z,15.73
2019-04-16T11:47:14.972Z,14.43
2019-04-16T11:49:44.371Z,15.30
2019-04-16T11:52:14.556Z,15.13
2019-04-16T11:54:46.854Z,14.63
2019-04-16T11:57:15.059Z,14.23
2019-04-16T11:59:44.423Z,14.70
2019-04-16T12:02:21.406Z,13.47
2019-04-16T12:05:01.792Z,13.80
2019-04-16T12:07:32.895Z,14.47
2019-04-16T12:10:03.899Z,13.87
2019-04-16T12:12:34.960Z,13.73
2019-04-16T12:15:13.905Z,13.53
2019-04-16T12:17:44.901Z,13.33
2019-04-16T12:20:16.037Z,13.27
2019-04-16T12:22:49.860Z,13.73
2019-04-16T12:25:29.285Z,14.17
2019-04-16T12:28:08.302Z,14.60
2019-04-16T12:30:52.830Z,13.83
2019-04-16T12:33:38.610Z,13.70
2019-04-16T12:36:14.458Z,13.67
2019-04-16T12:39:00.393Z,12.77
2019-04-16T12:41:47.662Z,13.00
2019-04-16T12:44:27.377Z,13.27
2019-04-16T12:47:04.253Z,13.30
2019-04-16T12:49:41.267Z,12.47
2019-04-16T12:52:18.065Z,12.10
2019-04-16T12:55:05.290Z,12.80
2019-04-16T12:57:46.910Z,13.97
2019-04-16T13:00:16.770Z,13.03
2019-04-16T13:02:53.980Z,13.93
2019-04-16T13:05:25.007Z,13.40
2019-04-16T13:07:55.994Z,13.47
2019-04-16T13:10:35.832Z,13.27
2019-04-16T13:13:22.764Z,12.10
2019-04-16T13:15:53.786Z,13.73
2019-04-16T13:18:24.795Z,13.37
2019-04-16T13:21:07.744Z,13.50
2019-04-16T13:23:38.813Z,14.40
2019-04-16T13:26:12.826Z,13.23
2019-04-16T13:28:40.888Z,12.23
2019-04-16T13:31:10.271Z,12.60
2019-04-16T13:33:39.639Z,12.07
2019-04-16T13:36:09.222Z,11.07
2019-04-16T13:38:42.970Z,11.97
2019-04-16T13:41:12.338Z,11.87
2019-04-16T13:43:43.342Z,11.67
2019-04-16T13:46:12.792Z,11.47
2019-04-16T13:48:43.898Z,11.53
2019-04-16T13:51:18.666Z,11.33
2019-04-16T13:53:53.475Z,11.77
2019-04-16T13:56:24.481Z,10.77
2019-04-16T13:59:01.295Z,11.33
2019-04-16T14:01:32.384Z,11.37
2019-04-16T14:04:01.749Z,12.20
2019-04-16T14:06:31.116Z,11.40
2019-04-16T14:09:00.476Z,11.27
2019-04-16T14:11:29.864Z,11.63
2019-04-16T14:13:59.219Z,11.73
2019-04-16T14:16:28.597Z,12.40
2019-04-16T14:18:57.976Z,11.53
2019-04-16T14:21:27.347Z,12.73
2019-04-16T14:23:56.798Z,12.00
2019-04-16T14:26:26.167Z,12.33
2019-04-16T14:28:57.004Z,11.53
2019-04-16T14:31:27.338Z,12.07
2019-04-16T14:33:58.326Z,11.50
2019-04-16T14:36:27.721Z,11.60
2019-04-16T14:39:11.005Z,13.13
2019-04-16T14:41:40.521Z,12.80
2019-04-16T14:44:11.513Z,12.43
2019-04-16T14:46:40.883Z,12.23
2019-04-16T14:49:10.302Z,13.77
2019-04-16T14:51:39.748Z,13.80
2019-04-16T14:54:13.804Z,14.53
2019-04-16T14:56:53.790Z,13.70
2019-04-16T14:59:39.903Z,13.80
2019-04-16T15:02:13.324Z,13.40
2019-04-16T15:05:02.688Z,12.50
2019-04-16T15:07:36.279Z,12.93
2019-04-16T15:10:16.075Z,13.20
2019-04-16T15:12:47.102Z,12.30
2019-04-16T15:15:18.143Z,11.53
2019-04-16T15:17:49.132Z,11.83
2019-04-16T15:20:23.156Z,11.43
2019-04-16T15:22:54.226Z,12.10
2019-04-16T15:25:25.312Z,10.70
2019-04-16T15:28:12.453Z,12.60
2019-04-16T15:30:46.206Z,13.50
2019-04-16T15:33:17.272Z,12.73
2019-04-16T15:35:48.377Z,11.47
2019-04-16T15:38:19.382Z,12.47
2019-04-16T15:40:50.667Z,12.67
2019-04-16T15:43:24.146Z,13.27
2019-04-16T15:46:07.129Z,14.07
2019-04-16T15:48:33.488Z,13.50
2019-04-16T15:51:07.780Z,14.13
2019-04-16T15:53:55.730Z,11.83
2019-04-16T15:56:29.889Z,11.93
2019-04-16T15:59:09.865Z,12.87
2019-04-16T16:01:47.053Z,11.80
2019-04-16T16:04:30.018Z,12.40
2019-04-16T16:07:01.223Z,11.73
2019-04-16T16:09:32.212Z,13.43
2019-04-16T16:12:03.303Z,12.77
2019-04-16T16:14:34.614Z,13.97
2019-04-16T16:17:03.804Z,13.93
2019-04-16T16:19:33.211Z,11.70
2019-04-16T16:22:02.573Z,11.20
2019-04-16T16:24:35.682Z,10.53
2019-04-16T16:27:03.345Z,10.23
2019-04-16T16:29:32.779Z,10.03
2019-04-16T16:32:02.174Z,12.57
2019-04-16T16:34:31.546Z,11.77
2019-04-16T16:37:01.223Z,11.37
2019-04-16T16:39:30.602Z,11.77
2019-04-16T16:42:00.074Z,10.77
2019-04-16T16:44:29.420Z,12.50
2019-04-16T16:47:00.608Z,10.97
2019-04-16T16:49:30.375Z,11.70
2019-04-16T16:52:17.331Z,11.10
2019-04-16T16:54:48.334Z,11.43
2019-04-16T16:57:25.072Z,11.23
2019-04-16T16:59:56.319Z,9.80
2019-04-16T17:02:42.707Z,10.77
2019-04-16T17:05:13.851Z,10.83
2019-04-16T17:07:43.229Z,11.20
2019-04-16T17:10:12.724Z,10.47
2019-04-16T17:12:42.115Z,10.37
2019-04-16T17:15:11.723Z,10.00
2019-04-16T17:17:41.235Z,10.90
2019-04-16T17:20:10.739Z,11.10
2019-04-16T17:22:40.875Z,9.20
2019-04-16T17:25:12.039Z,6.77
2019-04-16T17:27:51.263Z,5.20
2019-04-16T17:30:13.084Z,5.13
2019-04-16T17:32:42.461Z,3.57
2019-04-16T17:35:15.408Z,4.53
2019-04-16T17:37:42.999Z,3.77
2019-04-16T17:40:32.659Z,4.07
2019-04-16T17:43:12.914Z,3.77
2019-04-16T17:45:55.294Z,4.37
2019-04-16T17:48:35.274Z,4.83
2019-04-16T17:51:22.627Z,4.87
2019-04-16T17:54:09.040Z,4.90
2019-04-16T17:56:56.544Z,4.63
2019-04-16T17:59:36.592Z,4.27
2019-04-16T18:02:25.083Z,4.87
2019-04-16T18:05:12.742Z,4.67
2019-04-16T18:07:43.831Z,4.37
2019-04-16T18:10:26.729Z,4.50
2019-04-16T18:12:59.752Z,4.17
2019-04-16T18:15:33.845Z,3.90
2019-04-16T18:18:07.324Z,3.37
2019-04-16T18:20:40.973Z,3.80
2019-04-16T18:23:21.595Z,4.20
2019-04-16T18:26:01.274Z,4.33
2019-04-16T18:28:32.308Z,3.93
2019-04-16T18:31:09.077Z,4.07
2019-04-16T18:33:40.071Z,3.93
2019-04-16T18:36:14.142Z,3.73
2019-04-16T18:38:46.707Z,3.80
2019-04-16T18:41:20.859Z,3.93
2019-04-16T18:43:52.378Z,4.17
2019-04-16T18:46:30.069Z,3.97
2019-04-16T18:49:01.977Z,4.10
2019-04-16T18:51:33.582Z,3.73
2019-04-16T18:54:02.418Z,4.77
2019-04-16T18:56:31.859Z,4.20
2019-04-16T18:59:01.227Z,4.17
2019-04-16T19:01:33.372Z,3.97
2019-04-16T19:04:02.902Z,3.60
2019-04-16T19:06:32.281Z,4.00
2019-04-16T19:09:01.726Z,3.23
2019-04-16T19:11:31.076Z,3.83
2019-04-16T19:14:00.462Z,3.97
2019-04-16T19:16:29.822Z,3.10
2019-04-16T19:18:59.184Z,3.13
2019-04-16T19:21:28.548Z,3.00
2019-04-16T19:23:57.924Z,3.80
2019-04-16T19:26:30.107Z,3.27
2019-04-16T19:28:58.409Z,3.50
2019-04-16T19:31:27.753Z,2.77
2019-04-16T19:33:57.115Z,2.93
2019-04-16T19:36:27.559Z,3.37
2019-04-16T19:38:57.050Z,3.00
2019-04-16T19:41:26.505Z,3.00
2019-04-16T19:43:56.177Z,2.70
2019-04-16T19:46:25.889Z,3.90
2019-04-16T19:48:57.008Z,2.70
2019-04-16T19:51:27.007Z,2.97
2019-04-16T19:53:56.608Z,2.50
2019-04-16T19:56:26.207Z,3.03
2019-04-16T19:58:55.811Z,2.83
2019-04-16T20:01:25.460Z,2.93
2019-04-16T20:03:55.241Z,2.70
2019-04-16T20:06:26.141Z,2.90
2019-04-16T20:08:55.919Z,2.90
2019-04-16T20:11:25.480Z,2.60
2019-04-16T20:13:54.857Z,2.50
2019-04-16T20:16:24.201Z,2.67
2019-04-16T20:18:53.587Z,2.77
2019-04-16T20:21:22.924Z,2.90
2019-04-16T20:23:52.359Z,2.90
2019-04-16T20:26:21.712Z,3.03
2019-04-16T20:28:51.073Z,3.23
2019-04-16T20:31:20.409Z,3.63
2019-04-16T20:33:49.796Z,3.40
2019-04-16T20:36:22.495Z,2.80
2019-04-16T20:38:50.620Z,3.97
2019-04-16T20:41:19.962Z,3.20
2019-04-16T20:43:49.335Z,2.63
2019-04-16T20:46:18.776Z,3.20
2019-04-16T20:48:48.142Z,2.90
2019-04-16T20:51:17.571Z,2.87
2019-04-16T20:53:46.955Z,3.33
2019-04-16T20:56:20.009Z,2.90
2019-04-16T20:58:47.375Z,3.10
2019-04-16T21:01:33.022Z,3.20
2019-04-16T21:03:50.665Z,3.03
2019-04-16T21:06:20.057Z,2.50
2019-04-16T21:08:49.503Z,2.80
2019-04-16T21:11:18.868Z,3.10
2019-04-16T21:13:49.949Z,2.90
2019-04-16T21:16:19.665Z,3.10
2019-04-16T21:18:49.096Z,2.87
2019-04-16T21:21:19.590Z,2.73
2019-04-16T21:23:49.574Z,2.70
2019-04-16T21:26:19.941Z,2.50
2019-04-16T21:28:58.541Z,2.47
2019-04-16T21:31:29.874Z,2.73
2019-04-16T21:34:00.958Z,2.33
2019-04-16T21:36:40.886Z,4.03
2019-04-16T21:39:17.086Z,2.33
2019-04-16T21:41:42.938Z,3.53
2019-04-16T21:44:13.296Z,2.70
2019-04-16T21:46:42.731Z,2.50
2019-04-16T21:49:12.121Z,2.30
2019-04-16T21:51:59.501Z,2.40
2019-04-16T21:54:30.514Z,2.60
2019-04-16T21:57:00.402Z,2.40
2019-04-16T21:59:29.748Z,2.57
2019-04-16T22:01:59.653Z,2.60
2019-04-16T22:04:29.145Z,2.40
2019-04-16T22:06:58.502Z,2.97
2019-04-16T22:09:27.863Z,2.60
2019-04-16T22:11:57.205Z,2.27
2019-04-16T22:14:26.716Z,2.73
2019-04-16T22:16:56.130Z,2.70
2019-04-16T22:19:25.494Z,2.20
2019-04-16T22:21:54.856Z,2.40
2019-04-16T22:24:24.209Z,2.30
2019-04-16T22:26:53.551Z,2.60
2019-04-16T22:29:22.910Z,2.40
2019-04-16T22:31:56.161Z,2.23
2019-04-16T22:34:23.378Z,2.43
2019-04-16T22:36:52.810Z,2.30
2019-04-16T22:39:38.881Z,3.73
2019-04-16T22:42:09.869Z,2.60
2019-04-16T22:44:46.840Z,3.03
2019-04-16T22:47:26.550Z,2.37
2019-04-16T22:50:12.890Z,2.43
2019-04-16T22:52:26.963Z,2.50
2019-04-16T22:54:56.450Z,3.50
2019-04-16T22:57:25.842Z,2.27
2019-04-16T22:59:55.204Z,1.93
2019-04-16T23:02:26.338Z,2.43
2019-04-16T23:04:58.307Z,2.43
2019-04-16T23:07:26.759Z,2.30
2019-04-16T23:09:56.134Z,2.67
2019-04-16T23:12:28.083Z,2.50
2019-04-16T23:14:56.740Z,2.70
2019-04-16T23:17:27.043Z,2.40
2019-04-16T23:19:56.519Z,2.40
2019-04-16T23:22:25.890Z,2.60
2019-04-16T23:24:56.372Z,2.60
2019-04-16T23:27:25.962Z,2.07
2019-04-16T23:29:55.294Z,2.40
2019-04-16T23:32:27.673Z,2.47
2019-04-16T23:34:55.778Z,2.60
2019-04-16T23:37:25.164Z,2.60
2019-04-16T23:39:54.502Z,2.20
2019-04-16T23:42:23.855Z,2.33
2019-04-16T23:45:00.956Z,2.30
2019-04-16T23:47:47.028Z,3.40
2019-04-16T23:50:26.828Z,2.50
2019-04-16T23:52:58.331Z,2.33
2019-04-16T23:55:29.467Z,2.30
2019-04-16T23:58:00.467Z,3.20
